sensor_id;sensor_type;location;lat;lon;timestamp;pressure;altitude;pressure_sealevel;temperature;humidity
62946;BME280;52164;52.212;-1.010;2022-10-16T00:00:41;99402.83;;;11.07;69.84
62946;BME280;52164;52.212;-1.010;2022-10-16T00:03:08;99401.04;;;11.07;69.77
62946;BME280;52164;52.212;-1.010;2022-10-16T00:05:39;99399.46;;;11.06;69.54
62946;BME280;52164;52.212;-1.010;2022-10-16T00:08:06;99400.21;;;11.04;69.40
62946;BME280;52164;52.212;-1.010;2022-10-16T00:10:32;99402.74;;;11.02;69.28
62946;BME280;52164;52.212;-1.010;2022-10-16T00:12:57;99401.55;;;10.99;69.22
62946;BME280;52164;52.212;-1.010;2022-10-16T00:15:22;99401.77;;;10.98;69.22
62946;BME280;52164;52.212;-1.010;2022-10-16T00:17:48;99404.85;;;10.95;69.24
62946;BME280;52164;52.212;-1.010;2022-10-16T00:20:13;99398.11;;;10.93;69.15
62946;BME280;52164;52.212;-1.010;2022-10-16T00:22:39;99401.35;;;10.91;69.32
62946;BME280;52164;52.212;-1.010;2022-10-16T00:25:05;99401.75;;;10.89;69.25
62946;BME280;52164;52.212;-1.010;2022-10-16T00:27:31;99399.63;;;10.88;69.44
62946;BME280;52164;52.212;-1.010;2022-10-16T00:29:56;99397.88;;;10.86;69.53
62946;BME280;52164;52.212;-1.010;2022-10-16T00:32:21;99399.53;;;10.84;69.55
62946;BME280;52164;52.212;-1.010;2022-10-16T00:34:49;99398.86;;;10.81;69.41
62946;BME280;52164;52.212;-1.010;2022-10-16T00:37:14;99401.96;;;10.77;69.58
62946;BME280;52164;52.212;-1.010;2022-10-16T00:39:40;99403.80;;;10.74;69.62
62946;BME280;52164;52.212;-1.010;2022-10-16T00:42:05;99401.90;;;10.71;69.62
62946;BME280;52164;52.212;-1.010;2022-10-16T00:44:55;99406.44;;;10.67;69.66
62946;BME280;52164;52.212;-1.010;2022-10-16T00:47:30;99409.00;;;10.64;69.83
62946;BME280;52164;52.212;-1.010;2022-10-16T00:50:18;99414.93;;;10.61;69.91
62946;BME280;52164;52.212;-1.010;2022-10-16T00:52:47;99418.38;;;10.58;70.00
62946;BME280;52164;52.212;-1.010;2022-10-16T00:55:13;99416.61;;;10.56;70.08
62946;BME280;52164;52.212;-1.010;2022-10-16T00:57:39;99415.02;;;10.56;70.05
62946;BME280;52164;52.212;-1.010;2022-10-16T01:00:07;99412.55;;;10.55;70.06
62946;BME280;52164;52.212;-1.010;2022-10-16T01:02:34;99417.39;;;10.53;70.22
62946;BME280;52164;52.212;-1.010;2022-10-16T01:05:00;99418.29;;;10.53;70.17
62946;BME280;52164;52.212;-1.010;2022-10-16T01:07:46;99418.47;;;10.53;70.06
62946;BME280;52164;52.212;-1.010;2022-10-16T01:10:35;99422.94;;;10.52;70.10
62946;BME280;52164;52.212;-1.010;2022-10-16T01:15:42;99425.26;;;10.52;70.26
62946;BME280;52164;52.212;-1.010;2022-10-16T01:18:15;99424.58;;;10.50;70.38
62946;BME280;52164;52.212;-1.010;2022-10-16T01:21:02;99424.40;;;10.50;70.32
62946;BME280;52164;52.212;-1.010;2022-10-16T01:26:36;99426.91;;;10.49;70.46
62946;BME280;52164;52.212;-1.010;2022-10-16T01:29:28;99432.98;;;10.49;70.43
62946;BME280;52164;52.212;-1.010;2022-10-16T01:32:00;99426.04;;;10.48;70.38
62946;BME280;52164;52.212;-1.010;2022-10-16T01:34:33;99433.57;;;10.46;70.49
62946;BME280;52164;52.212;-1.010;2022-10-16T01:37:05;99440.02;;;10.44;70.35
62946;BME280;52164;52.212;-1.010;2022-10-16T01:39:35;99444.14;;;10.43;70.58
62946;BME280;52164;52.212;-1.010;2022-10-16T01:42:09;99450.22;;;10.42;70.59
62946;BME280;52164;52.212;-1.010;2022-10-16T01:44:38;99458.06;;;10.44;70.72
62946;BME280;52164;52.212;-1.010;2022-10-16T01:47:04;99466.77;;;10.45;70.82
62946;BME280;52164;52.212;-1.010;2022-10-16T01:49:33;99469.38;;;10.48;70.93
62946;BME280;52164;52.212;-1.010;2022-10-16T01:52:06;99465.39;;;10.52;70.99
62946;BME280;52164;52.212;-1.010;2022-10-16T01:54:34;99468.90;;;10.56;71.10
62946;BME280;52164;52.212;-1.010;2022-10-16T01:57:04;99465.63;;;10.60;71.06
62946;BME280;52164;52.212;-1.010;2022-10-16T01:59:33;99469.48;;;10.63;70.99
62946;BME280;52164;52.212;-1.010;2022-10-16T02:02:05;99475.84;;;10.67;71.02
62946;BME280;52164;52.212;-1.010;2022-10-16T02:04:37;99478.84;;;10.70;70.95
62946;BME280;52164;52.212;-1.010;2022-10-16T02:07:04;99478.96;;;10.72;70.89
62946;BME280;52164;52.212;-1.010;2022-10-16T02:09:33;99478.61;;;10.73;70.94
62946;BME280;52164;52.212;-1.010;2022-10-16T02:12:03;99486.27;;;10.74;70.81
62946;BME280;52164;52.212;-1.010;2022-10-16T02:14:32;99482.33;;;10.74;70.85
62946;BME280;52164;52.212;-1.010;2022-10-16T02:16:58;99487.52;;;10.74;70.83
62946;BME280;52164;52.212;-1.010;2022-10-16T02:19:23;99479.48;;;10.74;70.88
62946;BME280;52164;52.212;-1.010;2022-10-16T02:21:59;99487.91;;;10.71;70.91
62946;BME280;52164;52.212;-1.010;2022-10-16T02:25:18;99490.08;;;10.70;70.94
62946;BME280;52164;52.212;-1.010;2022-10-16T02:27:53;99497.79;;;10.67;70.79
62946;BME280;52164;52.212;-1.010;2022-10-16T02:30:27;99504.61;;;10.65;70.90
62946;BME280;52164;52.212;-1.010;2022-10-16T02:32:56;99518.02;;;10.64;70.93
62946;BME280;52164;52.212;-1.010;2022-10-16T02:35:24;99521.61;;;10.63;70.93
62946;BME280;52164;52.212;-1.010;2022-10-16T02:37:50;99524.83;;;10.62;71.10
62946;BME280;52164;52.212;-1.010;2022-10-16T02:40:17;99527.31;;;10.63;71.25
62946;BME280;52164;52.212;-1.010;2022-10-16T02:42:44;99533.52;;;10.66;71.39
62946;BME280;52164;52.212;-1.010;2022-10-16T02:45:11;99539.17;;;10.67;71.33
62946;BME280;52164;52.212;-1.010;2022-10-16T02:47:37;99543.25;;;10.70;71.50
62946;BME280;52164;52.212;-1.010;2022-10-16T02:50:03;99549.45;;;10.73;71.50
62946;BME280;52164;52.212;-1.010;2022-10-16T02:52:29;99552.23;;;10.77;71.56
62946;BME280;52164;52.212;-1.010;2022-10-16T02:54:54;99557.38;;;10.79;71.69
62946;BME280;52164;52.212;-1.010;2022-10-16T02:57:20;99560.58;;;10.80;71.82
62946;BME280;52164;52.212;-1.010;2022-10-16T02:59:45;99558.44;;;10.80;72.06
62946;BME280;52164;52.212;-1.010;2022-10-16T03:02:11;99551.88;;;10.77;72.32
62946;BME280;52164;52.212;-1.010;2022-10-16T03:04:37;99545.90;;;10.72;72.59
62946;BME280;52164;52.212;-1.010;2022-10-16T03:07:03;99548.31;;;10.66;72.69
62946;BME280;52164;52.212;-1.010;2022-10-16T03:09:28;99547.14;;;10.61;72.77
62946;BME280;52164;52.212;-1.010;2022-10-16T03:11:54;99556.66;;;10.57;73.03
62946;BME280;52164;52.212;-1.010;2022-10-16T03:14:19;99562.06;;;10.54;73.11
62946;BME280;52164;52.212;-1.010;2022-10-16T03:16:45;99565.81;;;10.53;73.34
62946;BME280;52164;52.212;-1.010;2022-10-16T03:19:10;99566.02;;;10.51;73.44
62946;BME280;52164;52.212;-1.010;2022-10-16T03:21:36;99569.10;;;10.48;73.57
62946;BME280;52164;52.212;-1.010;2022-10-16T03:24:01;99573.23;;;10.46;73.53
62946;BME280;52164;52.212;-1.010;2022-10-16T03:26:27;99574.33;;;10.45;73.62
62946;BME280;52164;52.212;-1.010;2022-10-16T03:28:52;99581.48;;;10.43;73.78
62946;BME280;52164;52.212;-1.010;2022-10-16T03:31:18;99585.27;;;10.42;73.57
62946;BME280;52164;52.212;-1.010;2022-10-16T03:33:43;99587.77;;;10.41;73.60
62946;BME280;52164;52.212;-1.010;2022-10-16T03:36:09;99588.50;;;10.40;73.46
62946;BME280;52164;52.212;-1.010;2022-10-16T03:38:39;99589.57;;;10.38;73.36
62946;BME280;52164;52.212;-1.010;2022-10-16T03:41:05;99596.94;;;10.35;73.38
62946;BME280;52164;52.212;-1.010;2022-10-16T03:43:33;99601.77;;;10.32;73.34
62946;BME280;52164;52.212;-1.010;2022-10-16T03:45:58;99609.28;;;10.29;73.47
62946;BME280;52164;52.212;-1.010;2022-10-16T03:48:24;99615.02;;;10.27;73.39
62946;BME280;52164;52.212;-1.010;2022-10-16T03:50:49;99613.81;;;10.24;73.35
62946;BME280;52164;52.212;-1.010;2022-10-16T03:53:17;99616.13;;;10.23;73.43
62946;BME280;52164;52.212;-1.010;2022-10-16T03:55:43;99617.59;;;10.21;73.46
62946;BME280;52164;52.212;-1.010;2022-10-16T03:58:09;99622.25;;;10.20;73.51
62946;BME280;52164;52.212;-1.010;2022-10-16T04:00:35;99624.40;;;10.19;73.50
62946;BME280;52164;52.212;-1.010;2022-10-16T04:03:01;99626.55;;;10.18;73.48
62946;BME280;52164;52.212;-1.010;2022-10-16T04:05:26;99633.52;;;10.17;73.55
62946;BME280;52164;52.212;-1.010;2022-10-16T04:07:52;99639.42;;;10.15;73.52
62946;BME280;52164;52.212;-1.010;2022-10-16T04:10:18;99649.23;;;10.15;73.50
62946;BME280;52164;52.212;-1.010;2022-10-16T04:12:44;99652.28;;;10.13;73.50
62946;BME280;52164;52.212;-1.010;2022-10-16T04:15:10;99662.45;;;10.12;73.36
62946;BME280;52164;52.212;-1.010;2022-10-16T04:17:35;99668.88;;;10.10;73.43
62946;BME280;52164;52.212;-1.010;2022-10-16T04:20:01;99671.24;;;10.07;73.34
62946;BME280;52164;52.212;-1.010;2022-10-16T04:22:26;99679.31;;;10.04;73.56
62946;BME280;52164;52.212;-1.010;2022-10-16T04:24:52;99685.41;;;10.02;73.60
62946;BME280;52164;52.212;-1.010;2022-10-16T04:27:17;99691.66;;;9.99;73.59
62946;BME280;52164;52.212;-1.010;2022-10-16T04:29:43;99695.95;;;9.97;73.57
62946;BME280;52164;52.212;-1.010;2022-10-16T04:32:09;99698.48;;;9.95;73.60
62946;BME280;52164;52.212;-1.010;2022-10-16T04:34:35;99706.52;;;9.93;73.81
62946;BME280;52164;52.212;-1.010;2022-10-16T04:37:00;99712.95;;;9.92;73.95
62946;BME280;52164;52.212;-1.010;2022-10-16T04:39:26;99713.51;;;9.90;74.07
62946;BME280;52164;52.212;-1.010;2022-10-16T04:41:51;99720.64;;;9.90;73.99
62946;BME280;52164;52.212;-1.010;2022-10-16T04:44:18;99727.59;;;9.90;74.00
62946;BME280;52164;52.212;-1.010;2022-10-16T04:46:44;99732.77;;;9.89;74.09
62946;BME280;52164;52.212;-1.010;2022-10-16T04:49:09;99740.25;;;9.89;74.12
62946;BME280;52164;52.212;-1.010;2022-10-16T04:51:35;99738.30;;;9.89;74.02
62946;BME280;52164;52.212;-1.010;2022-10-16T04:54:02;99743.66;;;9.87;74.04
62946;BME280;52164;52.212;-1.010;2022-10-16T04:56:27;99747.23;;;9.85;74.05
62946;BME280;52164;52.212;-1.010;2022-10-16T04:58:53;99750.64;;;9.83;74.27
62946;BME280;52164;52.212;-1.010;2022-10-16T05:01:18;99754.76;;;9.81;74.15
62946;BME280;52164;52.212;-1.010;2022-10-16T05:03:44;99761.02;;;9.79;74.05
62946;BME280;52164;52.212;-1.010;2022-10-16T05:06:09;99769.23;;;9.76;73.98
62946;BME280;52164;52.212;-1.010;2022-10-16T05:08:35;99776.39;;;9.74;74.25
62946;BME280;52164;52.212;-1.010;2022-10-16T05:11:00;99780.83;;;9.74;74.31
62946;BME280;52164;52.212;-1.010;2022-10-16T05:13:27;99782.27;;;9.73;74.29
62946;BME280;52164;52.212;-1.010;2022-10-16T05:15:53;99787.44;;;9.72;74.45
62946;BME280;52164;52.212;-1.010;2022-10-16T05:18:19;99794.22;;;9.71;74.53
62946;BME280;52164;52.212;-1.010;2022-10-16T05:20:44;99797.24;;;9.71;74.60
62946;BME280;52164;52.212;-1.010;2022-10-16T05:23:09;99796.36;;;9.70;74.63
62946;BME280;52164;52.212;-1.010;2022-10-16T05:25:36;99807.59;;;9.70;74.57
62946;BME280;52164;52.212;-1.010;2022-10-16T05:28:02;99813.30;;;9.69;74.60
62946;BME280;52164;52.212;-1.010;2022-10-16T05:30:27;99820.80;;;9.67;74.69
62946;BME280;52164;52.212;-1.010;2022-10-16T05:32:53;99825.62;;;9.66;74.74
62946;BME280;52164;52.212;-1.010;2022-10-16T05:35:20;99827.60;;;9.63;74.61
62946;BME280;52164;52.212;-1.010;2022-10-16T05:37:45;99836.89;;;9.60;74.73
62946;BME280;52164;52.212;-1.010;2022-10-16T05:40:13;99842.43;;;9.57;74.74
62946;BME280;52164;52.212;-1.010;2022-10-16T05:42:40;99845.11;;;9.55;74.74
62946;BME280;52164;52.212;-1.010;2022-10-16T05:45:07;99850.47;;;9.53;74.73
62946;BME280;52164;52.212;-1.010;2022-10-16T05:47:34;99851.90;;;9.52;74.92
62946;BME280;52164;52.212;-1.010;2022-10-16T05:49:59;99856.00;;;9.50;74.93
62946;BME280;52164;52.212;-1.010;2022-10-16T05:52:26;99858.16;;;9.50;74.91
62946;BME280;52164;52.212;-1.010;2022-10-16T05:54:51;99860.64;;;9.50;74.92
62946;BME280;52164;52.212;-1.010;2022-10-16T05:57:17;99862.24;;;9.50;75.06
62946;BME280;52164;52.212;-1.010;2022-10-16T05:59:42;99862.96;;;9.50;75.03
62946;BME280;52164;52.212;-1.010;2022-10-16T06:02:12;99859.39;;;9.50;75.23
62946;BME280;52164;52.212;-1.010;2022-10-16T06:04:38;99867.42;;;9.49;75.15
62946;BME280;52164;52.212;-1.010;2022-10-16T06:07:03;99869.92;;;9.48;75.10
62946;BME280;52164;52.212;-1.010;2022-10-16T06:09:29;99882.93;;;9.47;75.07
62946;BME280;52164;52.212;-1.010;2022-10-16T06:11:54;99890.60;;;9.45;75.17
62946;BME280;52164;52.212;-1.010;2022-10-16T06:14:19;99899.15;;;9.42;75.24
62946;BME280;52164;52.212;-1.010;2022-10-16T06:16:46;99903.82;;;9.37;75.33
62946;BME280;52164;52.212;-1.010;2022-10-16T06:19:11;99908.47;;;9.32;75.30
62946;BME280;52164;52.212;-1.010;2022-10-16T06:21:36;99909.55;;;9.29;75.27
62946;BME280;52164;52.212;-1.010;2022-10-16T06:24:02;99914.02;;;9.27;75.41
62946;BME280;52164;52.212;-1.010;2022-10-16T06:26:29;99918.65;;;9.25;75.41
62946;BME280;52164;52.212;-1.010;2022-10-16T06:28:57;99926.48;;;9.23;75.63
62946;BME280;52164;52.212;-1.010;2022-10-16T06:31:24;99933.25;;;9.22;75.83
62946;BME280;52164;52.212;-1.010;2022-10-16T06:33:53;99931.49;;;9.21;76.04
62946;BME280;52164;52.212;-1.010;2022-10-16T06:36:19;99938.25;;;9.21;76.16
62946;BME280;52164;52.212;-1.010;2022-10-16T06:38:45;99947.33;;;9.21;76.07
62946;BME280;52164;52.212;-1.010;2022-10-16T06:41:13;99954.46;;;9.21;76.35
62946;BME280;52164;52.212;-1.010;2022-10-16T06:43:39;99957.12;;;9.22;76.18
62946;BME280;52164;52.212;-1.010;2022-10-16T06:46:06;99961.38;;;9.22;76.50
62946;BME280;52164;52.212;-1.010;2022-10-16T06:48:33;99964.77;;;9.23;76.40
62946;BME280;52164;52.212;-1.010;2022-10-16T06:51:00;99968.67;;;9.24;76.54
62946;BME280;52164;52.212;-1.010;2022-10-16T06:53:28;99972.25;;;9.25;76.71
62946;BME280;52164;52.212;-1.010;2022-10-16T06:55:54;99972.77;;;9.27;76.61
62946;BME280;52164;52.212;-1.010;2022-10-16T06:58:20;99974.19;;;9.30;76.56
62946;BME280;52164;52.212;-1.010;2022-10-16T07:00:46;99975.09;;;9.30;76.56
62946;BME280;52164;52.212;-1.010;2022-10-16T07:03:12;99983.80;;;9.32;76.39
62946;BME280;52164;52.212;-1.010;2022-10-16T07:05:40;99986.11;;;9.32;76.43
62946;BME280;52164;52.212;-1.010;2022-10-16T07:08:06;99988.61;;;9.31;76.35
62946;BME280;52164;52.212;-1.010;2022-10-16T07:10:33;99989.34;;;9.29;76.52
62946;BME280;52164;52.212;-1.010;2022-10-16T07:12:59;99993.60;;;9.29;76.45
62946;BME280;52164;52.212;-1.010;2022-10-16T07:15:25;99999.66;;;9.30;76.49
62946;BME280;52164;52.212;-1.010;2022-10-16T07:17:55;100004.11;;;9.29;76.26
62946;BME280;52164;52.212;-1.010;2022-10-16T07:20:20;100002.85;;;9.29;76.38
62946;BME280;52164;52.212;-1.010;2022-10-16T07:22:46;100005.53;;;9.30;76.54
62946;BME280;52164;52.212;-1.010;2022-10-16T07:25:11;100004.98;;;9.31;76.48
62946;BME280;52164;52.212;-1.010;2022-10-16T07:27:37;100009.43;;;9.35;76.73
62946;BME280;52164;52.212;-1.010;2022-10-16T07:30:04;100013.16;;;9.38;76.30
62946;BME280;52164;52.212;-1.010;2022-10-16T07:32:31;100018.31;;;9.41;76.56
62946;BME280;52164;52.212;-1.010;2022-10-16T07:34:56;100019.38;;;9.45;76.52
62946;BME280;52164;52.212;-1.010;2022-10-16T07:37:22;100025.24;;;9.48;76.59
62946;BME280;52164;52.212;-1.010;2022-10-16T07:39:47;100022.73;;;9.54;76.60
62946;BME280;52164;52.212;-1.010;2022-10-16T07:42:14;100026.63;;;9.59;76.54
62946;BME280;52164;52.212;-1.010;2022-10-16T07:44:40;100026.98;;;9.61;76.57
62946;BME280;52164;52.212;-1.010;2022-10-16T07:47:06;100026.78;;;9.63;76.36
62946;BME280;52164;52.212;-1.010;2022-10-16T07:49:31;100040.85;;;9.66;76.33
62946;BME280;52164;52.212;-1.010;2022-10-16T07:51:57;100049.58;;;9.69;76.39
62946;BME280;52164;52.212;-1.010;2022-10-16T07:54:22;100051.34;;;9.72;76.31
62946;BME280;52164;52.212;-1.010;2022-10-16T07:56:48;100058.27;;;9.75;76.32
62946;BME280;52164;52.212;-1.010;2022-10-16T07:59:14;100070.38;;;9.79;76.33
62946;BME280;52164;52.212;-1.010;2022-10-16T08:01:40;100076.25;;;9.84;76.25
62946;BME280;52164;52.212;-1.010;2022-10-16T08:04:08;100079.08;;;9.88;76.39
62946;BME280;52164;52.212;-1.010;2022-10-16T08:06:36;100085.65;;;9.94;76.41
62946;BME280;52164;52.212;-1.010;2022-10-16T08:09:03;100089.91;;;9.99;76.45
62946;BME280;52164;52.212;-1.010;2022-10-16T08:11:29;100094.69;;;10.05;76.47
62946;BME280;52164;52.212;-1.010;2022-10-16T08:13:55;100097.16;;;10.12;76.38
62946;BME280;52164;52.212;-1.010;2022-10-16T08:16:21;100104.97;;;10.19;76.29
62946;BME280;52164;52.212;-1.010;2022-10-16T08:18:48;100106.36;;;10.26;76.16
62946;BME280;52164;52.212;-1.010;2022-10-16T08:21:19;100108.67;;;10.32;76.04
62946;BME280;52164;52.212;-1.010;2022-10-16T08:23:46;100110.61;;;10.38;76.05
62946;BME280;52164;52.212;-1.010;2022-10-16T08:26:12;100112.54;;;10.44;75.69
62946;BME280;52164;52.212;-1.010;2022-10-16T08:28:39;100120.90;;;10.48;75.48
62946;BME280;52164;52.212;-1.010;2022-10-16T08:31:13;100126.94;;;10.52;75.46
62946;BME280;52164;52.212;-1.010;2022-10-16T08:33:40;100131.90;;;10.59;75.34
62946;BME280;52164;52.212;-1.010;2022-10-16T08:36:08;100136.88;;;10.63;75.07
62946;BME280;52164;52.212;-1.010;2022-10-16T08:38:34;100145.05;;;10.65;74.93
62946;BME280;52164;52.212;-1.010;2022-10-16T08:41:13;100146.12;;;10.69;74.85
62946;BME280;52164;52.212;-1.010;2022-10-16T08:46:35;100151.38;;;10.80;74.72
62946;BME280;52164;52.212;-1.010;2022-10-16T08:49:11;100155.98;;;10.87;74.67
62946;BME280;52164;52.212;-1.010;2022-10-16T08:51:37;100159.34;;;10.93;74.50
62946;BME280;52164;52.212;-1.010;2022-10-16T08:54:04;100163.40;;;11.00;74.34
62946;BME280;52164;52.212;-1.010;2022-10-16T08:56:30;100164.41;;;11.08;74.12
62946;BME280;52164;52.212;-1.010;2022-10-16T08:58:57;100166.15;;;11.13;73.88
62946;BME280;52164;52.212;-1.010;2022-10-16T09:01:29;100173.06;;;11.19;73.66
62946;BME280;52164;52.212;-1.010;2022-10-16T09:04:27;100181.77;;;11.25;73.43
62946;BME280;52164;52.212;-1.010;2022-10-16T09:07:09;100177.09;;;11.30;73.22
62946;BME280;52164;52.212;-1.010;2022-10-16T09:10:55;100181.69;;;11.36;73.25
62946;BME280;52164;52.212;-1.010;2022-10-16T09:12:26;100183.08;;;11.41;72.73
62946;BME280;52164;52.212;-1.010;2022-10-16T09:15:07;100186.06;;;11.47;72.44
62946;BME280;52164;52.212;-1.010;2022-10-16T09:20:39;100184.48;;;11.61;71.36
62946;BME280;52164;52.212;-1.010;2022-10-16T09:25:39;100180.42;;;11.74;70.25
62946;BME280;52164;52.212;-1.010;2022-10-16T09:28:08;100179.84;;;11.80;69.70
62946;BME280;52164;52.212;-1.010;2022-10-16T09:30:34;100189.44;;;11.87;69.37
62946;BME280;52164;52.212;-1.010;2022-10-16T09:33:00;100194.02;;;11.92;68.70
62946;BME280;52164;52.212;-1.010;2022-10-16T09:35:44;100199.90;;;11.97;67.94
62946;BME280;52164;52.212;-1.010;2022-10-16T09:38:31;100200.94;;;12.01;67.83
62946;BME280;52164;52.212;-1.010;2022-10-16T09:40:59;100201.06;;;12.06;66.73
62946;BME280;52164;52.212;-1.010;2022-10-16T09:43:52;100201.92;;;12.08;66.28
62946;BME280;52164;52.212;-1.010;2022-10-16T09:46:29;100195.77;;;12.13;66.02
62946;BME280;52164;52.212;-1.010;2022-10-16T09:48:58;100197.16;;;12.19;65.44
62946;BME280;52164;52.212;-1.010;2022-10-16T09:51:28;100193.88;;;12.24;64.96
62946;BME280;52164;52.212;-1.010;2022-10-16T09:56:27;100199.83;;;12.35;64.47
62946;BME280;52164;52.212;-1.010;2022-10-16T09:58:56;100194.59;;;12.39;63.95
62946;BME280;52164;52.212;-1.010;2022-10-16T10:01:35;100194.70;;;12.44;63.75
62946;BME280;52164;52.212;-1.010;2022-10-16T10:04:02;100193.19;;;12.51;63.30
62946;BME280;52164;52.212;-1.010;2022-10-16T10:06:41;100197.42;;;12.56;62.92
62946;BME280;52164;52.212;-1.010;2022-10-16T10:09:36;100199.87;;;12.60;62.49
62946;BME280;52164;52.212;-1.010;2022-10-16T10:12:04;100199.09;;;12.65;61.78
62946;BME280;52164;52.212;-1.010;2022-10-16T10:14:43;100203.85;;;12.70;61.46
62946;BME280;52164;52.212;-1.010;2022-10-16T10:19:42;100207.19;;;12.75;61.78
62946;BME280;52164;52.212;-1.010;2022-10-16T10:22:31;100210.70;;;12.80;61.45
62946;BME280;52164;52.212;-1.010;2022-10-16T10:24:59;100217.77;;;12.86;62.54
62946;BME280;52164;52.212;-1.010;2022-10-16T10:27:36;100218.80;;;12.89;62.88
62946;BME280;52164;52.212;-1.010;2022-10-16T10:30:25;100218.89;;;12.96;63.75
62946;BME280;52164;52.212;-1.010;2022-10-16T10:33:18;100212.64;;;13.07;63.85
62946;BME280;52164;52.212;-1.010;2022-10-16T10:36:22;100211.43;;;13.15;63.49
62946;BME280;52164;52.212;-1.010;2022-10-16T10:38:44;100212.54;;;13.26;63.41
62946;BME280;52164;52.212;-1.010;2022-10-16T10:41:20;100215.05;;;13.38;63.18
62946;BME280;52164;52.212;-1.010;2022-10-16T10:44:06;100216.35;;;13.46;62.90
62946;BME280;52164;52.212;-1.010;2022-10-16T10:46:42;100224.02;;;13.49;62.70
62946;BME280;52164;52.212;-1.010;2022-10-16T10:49:24;100219.93;;;13.46;62.30
62946;BME280;52164;52.212;-1.010;2022-10-16T10:57:25;100227.06;;;13.38;61.17
62946;BME280;52164;52.212;-1.010;2022-10-16T11:00:21;100227.81;;;13.37;61.08
62946;BME280;52164;52.212;-1.010;2022-10-16T11:05:38;100224.48;;;13.29;60.52
62946;BME280;52164;52.212;-1.010;2022-10-16T11:08:11;100221.98;;;13.30;60.81
62946;BME280;52164;52.212;-1.010;2022-10-16T11:10:54;100221.56;;;13.34;60.92
62946;BME280;52164;52.212;-1.010;2022-10-16T11:15:39;100219.70;;;13.39;60.81
62946;BME280;52164;52.212;-1.010;2022-10-16T11:16:20;100219.84;;;13.41;60.78
62946;BME280;52164;52.212;-1.010;2022-10-16T11:19:04;100221.13;;;13.40;60.09
62946;BME280;52164;52.212;-1.010;2022-10-16T11:21:39;100219.99;;;13.43;60.07
62946;BME280;52164;52.212;-1.010;2022-10-16T11:24:19;100211.52;;;13.46;59.66
62946;BME280;52164;52.212;-1.010;2022-10-16T11:26:47;100209.27;;;13.51;59.70
62946;BME280;52164;52.212;-1.010;2022-10-16T11:29:21;100204.37;;;13.55;59.25
62946;BME280;52164;52.212;-1.010;2022-10-16T11:31:53;100200.18;;;13.59;58.86
62946;BME280;52164;52.212;-1.010;2022-10-16T11:36:56;100199.63;;;13.70;59.14
62946;BME280;52164;52.212;-1.010;2022-10-16T11:39:26;100198.09;;;13.76;58.50
62946;BME280;52164;52.212;-1.010;2022-10-16T11:42:46;100194.00;;;13.84;58.43
62946;BME280;52164;52.212;-1.010;2022-10-16T11:45:10;100195.14;;;13.91;58.03
62946;BME280;52164;52.212;-1.010;2022-10-16T11:47:44;100193.42;;;13.95;57.92
62946;BME280;52164;52.212;-1.010;2022-10-16T11:50:48;100195.30;;;14.01;57.69
62946;BME280;52164;52.212;-1.010;2022-10-16T11:53:42;100196.27;;;14.07;57.40
62946;BME280;52164;52.212;-1.010;2022-10-16T11:56:13;100194.73;;;14.12;56.76
62946;BME280;52164;52.212;-1.010;2022-10-16T12:07:01;100195.28;;;14.38;56.57
62946;BME280;52164;52.212;-1.010;2022-10-16T12:09:31;100192.66;;;14.43;56.04
62946;BME280;52164;52.212;-1.010;2022-10-16T12:11:57;100189.86;;;14.48;55.61
62946;BME280;52164;52.212;-1.010;2022-10-16T12:14:39;100186.02;;;14.52;55.75
62946;BME280;52164;52.212;-1.010;2022-10-16T12:17:26;100190.55;;;14.58;55.69
62946;BME280;52164;52.212;-1.010;2022-10-16T12:22:47;100190.71;;;14.68;56.07
62946;BME280;52164;52.212;-1.010;2022-10-16T12:25:36;100189.30;;;14.76;56.05
62946;BME280;52164;52.212;-1.010;2022-10-16T12:28:19;100187.83;;;14.85;55.74
62946;BME280;52164;52.212;-1.010;2022-10-16T12:31:06;100188.38;;;14.91;55.50
62946;BME280;52164;52.212;-1.010;2022-10-16T12:33:36;100192.88;;;15.00;55.71
62946;BME280;52164;52.212;-1.010;2022-10-16T12:36:15;100193.91;;;15.09;55.92
62946;BME280;52164;52.212;-1.010;2022-10-16T12:38:56;100194.54;;;15.21;55.71
62946;BME280;52164;52.212;-1.010;2022-10-16T12:43:53;100199.62;;;15.41;55.39
62946;BME280;52164;52.212;-1.010;2022-10-16T12:48:44;100204.41;;;15.58;55.21
62946;BME280;52164;52.212;-1.010;2022-10-16T12:51:19;100201.73;;;15.57;54.89
62946;BME280;52164;52.212;-1.010;2022-10-16T12:53:59;100203.05;;;15.56;54.80
62946;BME280;52164;52.212;-1.010;2022-10-16T12:59:40;100205.53;;;15.57;55.01
62946;BME280;52164;52.212;-1.010;2022-10-16T13:04:13;100194.17;;;15.79;54.98
62946;BME280;52164;52.212;-1.010;2022-10-16T13:10:00;100194.38;;;15.98;54.81
62946;BME280;52164;52.212;-1.010;2022-10-16T13:12:49;100200.72;;;15.97;54.85
62946;BME280;52164;52.212;-1.010;2022-10-16T13:25:28;100200.32;;;16.25;55.08
62946;BME280;52164;52.212;-1.010;2022-10-16T13:28:31;100185.39;;;16.37;54.34
62946;BME280;52164;52.212;-1.010;2022-10-16T13:30:59;100185.45;;;16.34;54.36
62946;BME280;52164;52.212;-1.010;2022-10-16T13:35:57;100171.02;;;16.34;54.39
62946;BME280;52164;52.212;-1.010;2022-10-16T13:38:25;100169.99;;;16.40;54.25
62946;BME280;52164;52.212;-1.010;2022-10-16T13:40:56;100175.48;;;16.43;54.34
62946;BME280;52164;52.212;-1.010;2022-10-16T13:43:25;100172.78;;;16.43;54.42
62946;BME280;52164;52.212;-1.010;2022-10-16T13:48:23;100170.97;;;16.44;54.20
62946;BME280;52164;52.212;-1.010;2022-10-16T13:51:17;100165.58;;;16.49;54.29
62946;BME280;52164;52.212;-1.010;2022-10-16T13:53:44;100161.46;;;16.72;53.98
62946;BME280;52164;52.212;-1.010;2022-10-16T13:56:12;100162.69;;;16.91;53.76
62946;BME280;52164;52.212;-1.010;2022-10-16T13:58:39;100167.27;;;17.17;52.88
62946;BME280;52164;52.212;-1.010;2022-10-16T14:01:15;100170.33;;;17.45;52.03
62946;BME280;52164;52.212;-1.010;2022-10-16T14:03:42;100167.96;;;17.51;51.82
62946;BME280;52164;52.212;-1.010;2022-10-16T14:06:14;100165.20;;;17.41;51.83
62946;BME280;52164;52.212;-1.010;2022-10-16T14:08:44;100167.55;;;17.31;51.84
62946;BME280;52164;52.212;-1.010;2022-10-16T14:11:11;100166.69;;;17.30;51.75
62946;BME280;52164;52.212;-1.010;2022-10-16T14:13:42;100159.81;;;17.46;51.09